Time;durP1;ratioP1;P1;durP2;ratioP2;P2;SDS_P1;SDS_P2;PMS_P1;PMS_P2;Temp;Humidity;BMP_temperature;BMP_pressure;BME280_temperature;BME280_humidity;BME280_pressure;Samples;Min_cycle;Max_cycle;Signal;HPM_P1;HPM_P2
2022/04/18 00:01:51;;;;;;;13.02;8.68;;;10.40;51.80;;;;;;5050990;28;20494;-74
2022/04/18 00:04:17;;;;;;;12.85;8.60;;;10.40;52.00;;;;;;5067512;28;20418;-74
2022/04/18 00:06:42;;;;;;;12.17;9.33;;;10.30;51.80;;;;;;5067758;28;20403;-74
2022/04/18 00:09:08;;;;;;;12.13;8.60;;;10.30;52.30;;;;;;5068409;28;20428;-74
2022/04/18 00:11:34;;;;;;;12.10;9.20;;;10.20;52.30;;;;;;5067383;28;20415;-74
2022/04/18 00:14:00;;;;;;;12.90;8.75;;;10.20;52.30;;;;;;5067373;28;20466;-74
2022/04/18 00:16:26;;;;;;;13.27;9.18;;;10.20;52.80;;;;;;5068550;28;20443;-74
2022/04/18 00:18:52;;;;;;;14.82;9.45;;;10.20;52.70;;;;;;5068439;28;20435;-74
2022/04/18 00:21:18;;;;;;;12.40;9.05;;;10.10;53.40;;;;;;5068383;28;20478;-74
2022/04/18 00:23:44;;;;;;;11.50;8.83;;;10.10;53.40;;;;;;5068699;28;20751;-74
2022/04/18 00:26:10;;;;;;;12.10;9.35;;;10.00;53.60;;;;;;5066938;28;20793;-74
2022/04/18 00:28:36;;;;;;;12.52;9.65;;;10.00;53.60;;;;;;5068093;28;20747;-74
2022/04/18 00:31:01;;;;;;;11.37;8.80;;;9.90;53.90;;;;;;5084531;28;20505;-74
2022/04/18 00:33:27;;;;;;;12.27;9.20;;;9.90;54.30;;;;;;5088748;28;20398;-74
2022/04/18 00:35:53;;;;;;;12.10;9.00;;;9.80;54.50;;;;;;5070312;28;20405;-74
2022/04/18 00:38:19;;;;;;;12.40;9.52;;;9.80;54.90;;;;;;5086964;28;20752;-74
2022/04/18 00:40:44;;;;;;;12.90;9.50;;;9.70;55.00;;;;;;5088440;28;20398;-74
2022/04/18 00:43:10;;;;;;;14.35;9.70;;;9.70;55.10;;;;;;5088507;28;20554;-74
2022/04/18 00:45:36;;;;;;;14.10;9.80;;;9.60;55.40;;;;;;5088288;28;20405;-74
2022/04/18 00:48:03;;;;;;;14.15;9.80;;;9.60;55.60;;;;;;5088220;28;20883;-74
2022/04/18 00:50:31;;;;;;;13.90;10.00;;;9.50;55.60;;;;;;5088112;28;20867;-74
2022/04/18 00:52:57;;;;;;;13.60;9.90;;;9.50;55.50;;;;;;5087961;28;20741;-74
2022/04/18 00:55:26;;;;;;;15.32;10.40;;;9.50;56.60;;;;;;5087547;28;20777;-74
2022/04/18 00:57:53;;;;;;;15.05;10.40;;;9.50;55.80;;;;;;5087367;28;20975;-74
2022/04/18 01:00:19;;;;;;;13.38;9.98;;;9.40;56.10;;;;;;5087025;28;20900;-74
2022/04/18 01:02:45;;;;;;;13.77;10.23;;;9.40;56.60;;;;;;5088160;28;20386;-74
2022/04/18 01:05:10;;;;;;;13.67;10.20;;;9.30;56.90;;;;;;5087436;28;20398;-74
2022/04/18 01:07:37;;;;;;;13.75;10.40;;;9.30;56.90;;;;;;5086695;28;20429;-74
2022/04/18 01:10:04;;;;;;;14.47;10.90;;;9.20;56.90;;;;;;5085711;28;20420;-74
2022/04/18 01:12:30;;;;;;;13.77;10.30;;;9.20;57.30;;;;;;5087156;28;20409;-74
2022/04/18 01:14:55;;;;;;;15.18;10.95;;;9.10;57.10;;;;;;5084746;28;20402;-74
2022/04/18 01:17:21;;;;;;;14.80;10.63;;;9.10;57.30;;;;;;5086038;28;20406;-74
2022/04/18 01:19:47;;;;;;;14.52;10.73;;;9.10;57.70;;;;;;5085934;28;20413;-74
2022/04/18 01:22:13;;;;;;;15.40;11.57;;;9.00;57.90;;;;;;5086035;28;20417;-74
2022/04/18 01:30:09;;;;;;;15.15;10.57;;;9.00;58.70;;;;;;5078289;28;20430;-74
2022/04/18 01:32:35;;;;;;;15.63;10.93;;;8.90;58.80;;;;;;5086768;28;20405;-74
2022/04/18 01:35:01;;;;;;;14.90;11.10;;;8.90;59.60;;;;;;5070099;28;20756;-74
2022/04/18 01:37:26;;;;;;;15.70;10.83;;;8.90;59.30;;;;;;5066574;28;20402;-74
2022/04/18 01:39:52;;;;;;;14.13;10.70;;;8.80;59.70;;;;;;5067746;28;20893;-74
2022/04/18 01:42:17;;;;;;;15.17;11.37;;;8.80;59.80;;;;;;5073595;28;20402;-74
2022/04/18 01:44:43;;;;;;;15.23;10.63;;;8.80;59.70;;;;;;5087643;28;20433;-74
2022/04/18 01:47:09;;;;;;;15.77;10.40;;;8.80;60.70;;;;;;5086443;28;20398;-74
2022/04/18 01:49:34;;;;;;;14.32;10.68;;;8.70;60.20;;;;;;5087661;28;20517;-74
2022/04/18 01:52:00;;;;;;;16.60;11.33;;;8.80;60.60;;;;;;5087032;28;20437;-74
2022/04/18 01:54:25;;;;;;;15.23;10.75;;;8.70;60.70;;;;;;5086412;28;20934;-74
2022/04/18 01:56:51;;;;;;;16.07;10.77;;;8.70;61.20;;;;;;5086330;28;20418;-74
2022/04/18 01:59:16;;;;;;;14.00;10.32;;;8.70;60.90;;;;;;5081385;28;20763;-74
2022/04/18 02:01:42;;;;;;;15.80;10.97;;;8.70;61.30;;;;;;5065122;28;20400;-74
2022/04/18 02:04:08;;;;;;;14.02;11.00;;;8.60;61.60;;;;;;5065090;28;20477;-74
2022/04/18 02:06:34;;;;;;;15.20;10.65;;;8.60;62.00;;;;;;5048095;28;20783;-74
2022/04/18 02:08:59;;;;;;;15.10;11.27;;;8.60;62.40;;;;;;5069947;28;20439;-74
2022/04/18 02:11:26;;;;;;;15.52;10.43;;;8.60;62.80;;;;;;5069963;28;20460;-74
2022/04/18 02:13:52;;;;;;;16.17;10.88;;;8.60;62.80;;;;;;5068982;28;20502;-74
2022/04/18 02:16:19;;;;;;;14.50;10.52;;;8.50;63.00;;;;;;5070569;28;20471;-75
2022/04/18 02:18:45;;;;;;;13.43;10.32;;;8.50;62.90;;;;;;5068579;28;20407;-74
2022/04/18 02:21:12;;;;;;;13.65;10.40;;;8.50;62.90;;;;;;5068701;28;20411;-74
2022/04/18 02:23:38;;;;;;;13.88;10.05;;;8.50;63.50;;;;;;5052126;28;20407;-74
2022/04/18 02:26:04;;;;;;;15.55;10.30;;;8.50;63.70;;;;;;5069952;28;20426;-74
2022/04/18 02:28:31;;;;;;;14.73;10.35;;;8.40;64.90;;;;;;5069596;28;20488;-74
2022/04/18 02:30:57;;;;;;;14.18;10.55;;;8.40;64.30;;;;;;5068592;28;20491;-74
2022/04/18 02:33:23;;;;;;;14.30;10.27;;;8.40;65.20;;;;;;5074871;28;20398;-74
2022/04/18 02:35:49;;;;;;;13.30;10.17;;;8.40;65.30;;;;;;5088736;28;20954;-74
2022/04/18 02:38:14;;;;;;;14.73;10.63;;;8.30;65.70;;;;;;5088805;28;20552;-74
2022/04/18 02:40:40;;;;;;;14.37;9.83;;;8.30;66.70;;;;;;5089806;28;20421;-74
2022/04/18 02:43:06;;;;;;;14.23;10.17;;;8.30;66.70;;;;;;5089385;28;20424;-74
2022/04/18 02:45:32;;;;;;;13.18;9.60;;;8.20;66.60;;;;;;5090641;28;20800;-74
2022/04/18 02:47:58;;;;;;;14.23;10.30;;;8.20;66.70;;;;;;5089441;28;20431;-74
2022/04/18 02:50:25;;;;;;;13.80;9.97;;;8.20;66.80;;;;;;5090252;28;20422;-74
2022/04/18 02:52:51;;;;;;;14.40;10.32;;;8.30;67.10;;;;;;5088941;28;20415;-74
2022/04/18 02:55:16;;;;;;;14.83;10.20;;;8.30;67.40;;;;;;5089434;28;20410;-74
2022/04/18 02:57:42;;;;;;;14.20;10.67;;;8.30;67.30;;;;;;5090829;28;20398;-74
2022/04/18 03:00:10;;;;;;;15.43;10.00;;;8.30;68.40;;;;;;5090436;28;20439;-74
2022/04/18 03:02:37;;;;;;;13.93;9.80;;;8.20;68.00;;;;;;5089995;28;20405;-74
2022/04/18 03:05:04;;;;;;;13.25;9.65;;;8.20;68.20;;;;;;5090605;28;20412;-74
2022/04/18 03:07:31;;;;;;;14.60;9.98;;;8.20;68.60;;;;;;5090596;28;20406;-74
2022/04/18 03:09:56;;;;;;;14.13;9.43;;;8.20;69.00;;;;;;5090083;28;20422;-74
2022/04/18 03:12:23;;;;;;;13.82;9.70;;;8.20;69.60;;;;;;5088893;28;20413;-74
2022/04/18 03:14:49;;;;;;;14.90;10.13;;;8.20;69.70;;;;;;5088368;28;20430;-74
2022/04/18 03:17:15;;;;;;;14.30;10.35;;;8.20;70.30;;;;;;5088669;28;20414;-74
2022/04/18 03:19:41;;;;;;;14.65;10.20;;;8.20;70.80;;;;;;5088869;28;20405;-74
2022/04/18 03:22:07;;;;;;;14.38;10.32;;;8.20;71.30;;;;;;5090265;28;20753;-74
2022/04/18 03:24:33;;;;;;;14.40;10.25;;;8.20;71.50;;;;;;5090078;28;20946;-74
2022/04/18 03:27:02;;;;;;;16.30;10.30;;;8.20;70.80;;;;;;5089375;28;20402;-74
2022/04/18 03:29:28;;;;;;;14.20;10.25;;;8.20;71.30;;;;;;5090080;28;20437;-74
2022/04/18 03:31:54;;;;;;;13.25;9.70;;;8.20;72.10;;;;;;5088328;28;20907;-74
2022/04/18 03:34:20;;;;;;;12.97;9.43;;;8.10;73.20;;;;;;5076431;28;20400;-74
2022/04/18 03:42:15;;;;;;;12.93;9.88;;;8.00;73.10;;;;;;5069221;28;20426;-74
2022/04/18 03:44:44;;;;;;;14.88;10.40;;;8.00;73.80;;;;;;5069576;28;20403;-74
2022/04/18 03:47:14;;;;;;;14.43;10.60;;;8.00;75.00;;;;;;5067930;28;20400;-74
2022/04/18 03:49:40;;;;;;;14.68;10.88;;;8.00;75.10;;;;;;5067848;28;20949;-75
2022/04/18 03:52:07;;;;;;;15.35;10.48;;;7.90;75.40;;;;;;5069961;28;20445;-74
2022/04/18 03:54:34;;;;;;;14.13;9.80;;;7.90;76.10;;;;;;5068770;28;20465;-74
2022/04/18 03:57:01;;;;;;;15.63;10.98;;;7.90;76.10;;;;;;5067784;28;20422;-74
2022/04/18 03:59:27;;;;;;;16.05;10.82;;;7.90;76.60;;;;;;5067619;28;20490;-74
2022/04/18 04:01:52;;;;;;;14.33;10.90;;;7.80;77.10;;;;;;5067553;28;20415;-74
2022/04/18 04:04:18;;;;;;;14.88;10.95;;;7.80;77.50;;;;;;5069095;28;20925;-74
2022/04/18 04:06:43;;;;;;;14.83;10.97;;;7.80;78.00;;;;;;5068680;28;20523;-74
2022/04/18 04:09:09;;;;;;;15.52;10.88;;;7.80;79.00;;;;;;5068583;28;20423;-74
2022/04/18 04:11:35;;;;;;;15.93;10.97;;;7.80;79.30;;;;;;5068944;28;20445;-74
2022/04/18 04:14:00;;;;;;;15.95;11.32;;;7.70;80.30;;;;;;5068724;28;20778;-74
2022/04/18 04:16:26;;;;;;;15.87;11.43;;;7.70;81.50;;;;;;5050554;28;20404;-74
2022/04/18 04:18:52;;;;;;;15.67;11.27;;;7.60;82.50;;;;;;5067199;28;20434;-74
2022/04/18 04:21:17;;;;;;;16.85;11.98;;;7.60;83.40;;;;;;5067226;28;20444;-74
2022/04/18 04:23:43;;;;;;;15.83;11.40;;;7.50;84.40;;;;;;5068164;28;20461;-74
2022/04/18 04:26:09;;;;;;;14.95;10.82;;;7.40;86.20;;;;;;5067262;28;20416;-74
2022/04/18 04:28:35;;;;;;;17.27;11.85;;;7.40;86.00;;;;;;5067213;28;20431;-74
2022/04/18 04:31:03;;;;;;;14.87;11.00;;;7.40;86.90;;;;;;5066823;28;20400;-74
2022/04/18 04:33:30;;;;;;;16.60;11.70;;;7.30;87.80;;;;;;5074169;28;20402;-74
2022/04/18 04:35:57;;;;;;;16.08;11.50;;;7.30;87.30;;;;;;5088758;28;20443;-74
2022/04/18 04:38:23;;;;;;;15.48;11.20;;;7.30;89.70;;;;;;5088467;28;20448;-75
2022/04/18 04:40:49;;;;;;;15.10;11.25;;;7.20;90.60;;;;;;5088666;28;20394;-75
2022/04/18 04:43:15;;;;;;;14.30;11.30;;;7.10;91.20;;;;;;5086951;28;20525;-75
2022/04/18 04:45:40;;;;;;;15.98;11.63;;;7.10;91.30;;;;;;5088402;28;20437;-75
2022/04/18 04:48:06;;;;;;;16.20;11.60;;;7.10;91.40;;;;;;5087098;28;20489;-75
2022/04/18 04:50:32;;;;;;;15.95;11.73;;;7.00;91.20;;;;;;5087375;28;20827;-75
2022/04/18 04:52:58;;;;;;;16.17;11.90;;;7.00;91.40;;;;;;5086880;28;20479;-75
2022/04/18 04:55:24;;;;;;;17.88;11.82;;;7.10;91.50;;;;;;5088460;28;20798;-75
2022/04/18 04:57:49;;;;;;;14.63;11.40;;;7.00;91.80;;;;;;5087276;28;20446;-75
2022/04/18 05:00:15;;;;;;;16.65;11.70;;;7.10;91.90;;;;;;5088023;28;20402;-75
2022/04/18 05:02:40;;;;;;;15.60;11.30;;;7.10;91.60;;;;;;5086733;28;20402;-75
2022/04/18 05:05:06;;;;;;;17.77;12.13;;;7.10;92.40;;;;;;5070191;28;20394;-75
2022/04/18 05:07:32;;;;;;;18.08;11.90;;;7.10;92.90;;;;;;5086733;28;20905;-75
2022/04/18 05:09:57;;;;;;;16.07;11.93;;;7.10;92.40;;;;;;5088143;28;20434;-75
2022/04/18 05:12:26;;;;;;;15.55;11.80;;;7.10;92.60;;;;;;5086906;28;20413;-74
2022/04/18 05:14:51;;;;;;;16.40;11.57;;;7.20;92.60;;;;;;5087845;28;20409;-75
2022/04/18 05:17:18;;;;;;;15.65;11.88;;;7.20;92.40;;;;;;5086851;28;20405;-75
2022/04/18 05:19:45;;;;;;;17.63;12.40;;;7.20;93.00;;;;;;5088055;28;20436;-75
2022/04/18 05:22:11;;;;;;;16.17;12.27;;;7.20;93.50;;;;;;5086959;28;20406;-75
2022/04/18 05:24:36;;;;;;;17.45;11.63;;;7.20;93.10;;;;;;5088174;28;20410;-75
2022/04/18 05:27:02;;;;;;;16.10;12.23;;;7.30;93.60;;;;;;5087970;28;20935;-75
2022/04/18 05:29:28;;;;;;;16.45;11.70;;;7.30;94.10;;;;;;5086177;28;20441;-75
2022/04/18 05:31:54;;;;;;;17.98;12.77;;;7.40;93.70;;;;;;5087431;28;20414;-75
2022/04/18 05:34:19;;;;;;;14.80;11.43;;;7.40;93.50;;;;;;5073785;28;20404;-75
2022/04/18 05:36:45;;;;;;;18.13;12.60;;;7.40;93.20;;;;;;5066383;28;20453;-75
2022/04/18 05:39:10;;;;;;;16.83;12.13;;;7.50;93.90;;;;;;5067857;28;20449;-75
2022/04/18 05:41:36;;;;;;;17.57;12.27;;;7.50;93.70;;;;;;5068462;28;20777;-75
2022/04/18 05:44:02;;;;;;;17.30;11.83;;;7.60;93.70;;;;;;5070313;28;20987;-75
2022/04/18 05:46:27;;;;;;;17.83;12.40;;;7.60;93.50;;;;;;5071634;28;20420;-75
2022/04/18 05:48:54;;;;;;;16.73;12.32;;;7.70;93.80;;;;;;5069960;28;20474;-76
2022/04/18 05:51:20;;;;;;;16.92;12.10;;;7.70;94.00;;;;;;5071238;28;20461;-76
2022/04/18 05:53:46;;;;;;;16.30;12.30;;;7.80;93.70;;;;;;5071263;28;20403;-75
2022/04/18 05:56:11;;;;;;;17.00;12.48;;;7.80;93.30;;;;;;5071488;28;20457;-75
2022/04/18 05:58:37;;;;;;;24.63;14.47;;;7.80;93.40;;;;;;5070043;28;20407;-75
2022/04/18 06:01:02;;;;;;;22.58;14.00;;;7.90;92.90;;;;;;5070273;28;20953;-75
2022/04/18 06:03:28;;;;;;;21.77;14.20;;;7.90;92.80;;;;;;5071276;28;20461;-75
2022/04/18 06:05:54;;;;;;;20.75;13.40;;;8.00;92.70;;;;;;5070796;28;20498;-75
2022/04/18 06:08:19;;;;;;;18.70;13.00;;;8.10;93.00;;;;;;5070711;28;20882;-75
2022/04/18 06:10:45;;;;;;;20.20;13.20;;;8.10;92.70;;;;;;5069547;28;20481;-75
2022/04/18 06:13:10;;;;;;;20.05;13.65;;;8.20;92.70;;;;;;5069772;28;20823;-75
2022/04/18 06:15:36;;;;;;;19.23;12.57;;;8.20;92.60;;;;;;5071371;28;20408;-75
2022/04/18 06:18:02;;;;;;;16.35;11.98;;;8.30;92.50;;;;;;5069437;28;20461;-75
2022/04/18 06:20:28;;;;;;;16.17;11.47;;;8.30;92.30;;;;;;5070416;28;20482;-75
2022/04/18 06:22:53;;;;;;;16.73;11.83;;;8.40;92.10;;;;;;5070554;28;20427;-76
2022/04/18 06:25:19;;;;;;;17.70;11.90;;;8.40;92.30;;;;;;5068895;28;20416;-75
2022/04/18 06:27:45;;;;;;;15.80;11.50;;;8.50;92.20;;;;;;5070790;28;20399;-75
2022/04/18 06:30:10;;;;;;;14.60;11.02;;;8.60;92.40;;;;;;5052150;28;20441;-74
2022/04/18 06:32:37;;;;;;;16.57;10.63;;;8.60;92.40;;;;;;5070384;28;20457;-75
2022/04/18 06:35:03;;;;;;;14.30;10.70;;;8.70;92.60;;;;;;5089834;28;20975;-75
2022/04/18 06:37:29;;;;;;;13.70;10.63;;;8.80;92.70;;;;;;5090964;28;20393;-75
2022/04/18 06:39:55;;;;;;;14.40;10.73;;;8.80;92.50;;;;;;5089349;28;20405;-75
2022/04/18 06:42:21;;;;;;;13.63;9.97;;;8.90;91.90;;;;;;5090790;28;20605;-75
2022/04/18 06:44:46;;;;;;;13.52;9.98;;;9.00;91.50;;;;;;5089943;28;20410;-76
2022/04/18 06:47:12;;;;;;;15.13;10.93;;;9.10;91.70;;;;;;5089175;28;20471;-76
2022/04/18 06:49:37;;;;;;;14.38;10.10;;;9.10;91.30;;;;;;5088017;28;20513;-76
2022/04/18 06:52:04;;;;;;;15.00;10.57;;;9.20;91.10;;;;;;5089898;28;20402;-76
2022/04/18 06:54:29;;;;;;;14.43;9.63;;;9.30;91.00;;;;;;5089709;28;20406;-76
2022/04/18 06:57:01;;;;;;;13.30;9.52;;;9.30;91.00;;;;;;5090244;28;20406;-76
2022/04/18 06:59:30;;;;;;;13.20;9.77;;;9.40;90.50;;;;;;5088938;28;20406;-76
2022/04/18 07:01:57;;;;;;;12.82;9.77;;;9.50;90.50;;;;;;5089090;28;20410;-76
2022/04/18 07:04:24;;;;;;;14.52;10.30;;;9.50;90.20;;;;;;5090072;28;20398;-76
2022/04/18 07:06:50;;;;;;;13.45;9.70;;;9.60;90.30;;;;;;5089357;28;21085;-76
2022/04/18 07:09:17;;;;;;;13.00;9.77;;;9.70;90.40;;;;;;5089856;28;20437;-76
2022/04/18 07:11:45;;;;;;;15.45;10.38;;;9.80;90.60;;;;;;5088820;28;20438;-77
2022/04/18 07:14:12;;;;;;;12.13;9.60;;;9.80;91.00;;;;;;5088269;28;20410;-76
2022/04/18 07:16:38;;;;;;;14.97;10.37;;;9.90;91.10;;;;;;5090227;28;20899;-76
2022/04/18 07:19:03;;;;;;;12.93;9.80;;;9.90;91.40;;;;;;5090141;28;20394;-76
2022/04/18 07:21:29;;;;;;;14.35;10.50;;;10.00;91.40;;;;;;5089983;28;20446;-76
2022/04/18 07:23:54;;;;;;;14.03;10.40;;;10.10;91.20;;;;;;5089875;28;20402;-76
2022/04/18 07:26:20;;;;;;;14.02;10.07;;;10.10;91.30;;;;;;5089337;28;20887;-76
2022/04/18 07:28:47;;;;;;;13.80;10.68;;;10.20;91.10;;;;;;5088348;28;20504;-76
2022/04/18 07:31:12;;;;;;;13.50;10.40;;;10.20;90.60;;;;;;5087233;28;20429;-76
2022/04/18 07:33:38;;;;;;;14.10;10.57;;;10.30;91.00;;;;;;5081690;28;20841;-76
2022/04/18 07:36:04;;;;;;;13.87;10.20;;;10.40;91.10;;;;;;5067028;28;20432;-76
2022/04/18 07:41:34;;;;;;;14.37;10.77;;;10.40;90.70;;;;;;5061746;28;20417;-76
2022/04/18 07:44:01;;;;;;;15.32;10.55;;;10.60;91.00;;;;;;5060239;28;20408;-75
2022/04/18 07:46:27;;;;;;;13.70;10.35;;;10.60;91.00;;;;;;5049680;28;20452;-76
2022/04/18 07:48:53;;;;;;;12.93;10.43;;;10.70;90.70;;;;;;5052481;28;20510;-77
2022/04/18 07:51:34;;;;;;;13.63;10.82;;;10.70;90.80;;;;;;5051597;28;20459;-77
2022/04/18 07:54:02;;;;;;;14.05;11.00;;;10.80;91.10;;;;;;5045820;28;20496;-76
2022/04/18 07:56:28;;;;;;;13.80;10.50;;;10.90;91.00;;;;;;5052496;28;20514;-76
2022/04/18 07:58:54;;;;;;;14.80;10.10;;;11.00;91.20;;;;;;5046682;28;20406;-76
2022/04/18 08:01:21;;;;;;;13.50;10.03;;;11.10;91.70;;;;;;5045795;28;20761;-76
2022/04/18 08:03:47;;;;;;;13.50;9.67;;;11.20;91.40;;;;;;5047913;28;20437;-76
2022/04/18 08:06:14;;;;;;;13.07;9.02;;;11.30;91.10;;;;;;5046775;28;20409;-76
2022/04/18 08:08:40;;;;;;;13.05;9.60;;;11.40;89.60;;;;;;5058171;28;20426;-76
2022/04/18 08:11:11;;;;;;;12.73;9.20;;;11.50;89.90;;;;;;5049167;28;20497;-76
2022/04/18 08:13:41;;;;;;;11.85;8.75;;;11.60;88.90;;;;;;5068428;28;20913;-76
2022/04/18 08:16:07;;;;;;;12.30;8.93;;;11.70;86.90;;;;;;5058415;28;20411;-76
2022/04/18 08:18:36;;;;;;;12.05;9.07;;;11.80;87.90;;;;;;5064256;28;20469;-76
2022/04/18 08:21:03;;;;;;;13.52;8.88;;;11.90;87.10;;;;;;5053727;28;20452;-77
2022/04/18 08:23:29;;;;;;;10.88;8.15;;;12.00;86.30;;;;;;5047896;28;20409;-76
2022/04/18 08:25:55;;;;;;;10.68;8.32;;;12.10;87.00;;;;;;5057320;28;20419;-76
2022/04/18 08:28:20;;;;;;;10.55;8.40;;;12.20;86.40;;;;;;5063100;28;20428;-76
2022/04/18 08:30:46;;;;;;;11.40;8.90;;;12.30;85.40;;;;;;5046084;28;20761;-75
2022/04/18 08:33:11;;;;;;;10.03;7.93;;;12.40;86.50;;;;;;5052961;28;20417;-77
2022/04/18 08:35:37;;;;;;;13.07;8.40;;;12.40;82.90;;;;;;5084989;28;20409;-76
2022/04/18 08:38:03;;;;;;;10.77;7.97;;;12.50;82.10;;;;;;5060100;28;20497;-76
2022/04/18 08:40:29;;;;;;;11.80;8.60;;;12.60;82.60;;;;;;5065479;28;20411;-76
2022/04/18 08:42:55;;;;;;;11.32;8.30;;;12.70;84.50;;;;;;5067385;28;20408;-76
2022/04/18 08:45:24;;;;;;;10.93;7.97;;;12.70;81.70;;;;;;5067086;28;20468;-76
2022/04/18 08:53:34;;;;;;;11.50;8.05;;;13.00;78.10;;;;;;5047214;28;20470;-75
2022/04/18 08:56:00;;;;;;;9.43;7.35;;;13.10;77.70;;;;;;5047934;28;20854;-75
2022/04/18 08:58:26;;;;;;;10.73;7.87;;;13.20;78.80;;;;;;5046416;28;20439;-75
2022/04/18 09:00:53;;;;;;;10.10;7.82;;;13.30;78.60;;;;;;5048733;28;20415;-75
2022/04/18 09:03:19;;;;;;;11.68;7.93;;;13.40;75.30;;;;;;5047312;28;20411;-75
2022/04/18 09:05:46;;;;;;;9.57;6.90;;;13.50;76.30;;;;;;5063130;28;20437;-75
2022/04/18 09:08:12;;;;;;;9.70;7.35;;;13.60;75.40;;;;;;5047512;28;20449;-75
2022/04/18 09:10:40;;;;;;;10.65;7.55;;;13.70;77.60;;;;;;5046566;28;20437;-75
2022/04/18 09:13:12;;;;;;;10.35;7.50;;;13.90;76.70;;;;;;5046006;28;20405;-75
2022/04/18 09:15:42;;;;;;;9.70;7.28;;;14.00;75.70;;;;;;5047022;28;20463;-75
2022/04/18 09:18:12;;;;;;;8.77;6.90;;;14.00;71.60;;;;;;5056782;28;20424;-75
2022/04/18 09:20:52;;;;;;;10.05;7.38;;;14.20;73.50;;;;;;5063459;28;20434;-75
2022/04/18 09:23:30;;;;;;;9.32;7.00;;;14.40;72.80;;;;;;5062652;28;20455;-76
2022/04/18 09:25:57;;;;;;;9.03;7.50;;;15.20;74.30;;;;;;5067057;28;20774;-76
2022/04/18 09:28:34;;;;;;;9.00;7.03;;;16.00;69.90;;;;;;5066976;28;20415;-76
2022/04/18 09:31:11;;;;;;;8.30;7.00;;;16.60;69.10;;;;;;5066422;28;20869;-76
2022/04/18 09:33:53;;;;;;;8.73;7.38;;;17.30;65.60;;;;;;5068815;28;20431;-76
2022/04/18 09:36:20;;;;;;;9.00;7.18;;;17.80;64.50;;;;;;5047100;28;20405;-76
2022/04/18 09:38:54;;;;;;;9.88;6.90;;;18.30;62.50;;;;;;5045657;28;20401;-76
2022/04/18 09:41:31;;;;;;;8.38;6.60;;;18.50;59.00;;;;;;5049248;28;20793;-77
2022/04/18 09:43:57;;;;;;;8.10;6.57;;;18.90;57.60;;;;;;5046203;28;20968;-77
2022/04/18 09:46:23;;;;;;;7.88;6.53;;;19.20;56.20;;;;;;5055754;28;20489;-77
2022/04/18 09:48:51;;;;;;;8.80;7.22;;;19.40;57.20;;;;;;5065395;28;20435;-75
2022/04/18 09:51:25;;;;;;;8.65;6.90;;;19.80;56.20;;;;;;5051942;28;20427;-77
2022/04/18 09:53:53;;;;;;;7.25;5.60;;;20.10;55.40;;;;;;5067163;28;20857;-76
2022/04/18 09:56:22;;;;;;;8.35;6.25;;;20.20;51.80;;;;;;5053592;28;20420;-75
2022/04/18 09:58:48;;;;;;;6.45;5.45;;;20.20;52.30;;;;;;5049354;28;21130;-75
2022/04/18 10:01:14;;;;;;;8.13;5.63;;;20.30;51.40;;;;;;5045145;28;20416;-76
2022/04/18 10:03:41;;;;;;;7.07;5.43;;;20.40;49.00;;;;;;5047273;28;20398;-77
2022/04/18 10:06:08;;;;;;;6.95;5.65;;;20.50;50.70;;;;;;5048444;28;20486;-75
2022/04/18 10:08:35;;;;;;;7.05;5.70;;;20.70;49.40;;;;;;5050397;28;20429;-75
2022/04/18 10:11:03;;;;;;;7.85;6.30;;;21.00;49.10;;;;;;5045613;28;20489;-75
2022/04/18 10:13:30;;;;;;;7.78;5.93;;;21.10;48.40;;;;;;5047468;28;20401;-75
2022/04/18 10:16:00;;;;;;;9.38;6.03;;;21.20;49.60;;;;;;5046720;28;20413;-75
2022/04/18 10:18:27;;;;;;;6.65;5.75;;;21.40;48.70;;;;;;5046031;28;20410;-76
2022/04/18 10:21:08;;;;;;;8.00;6.10;;;21.60;49.00;;;;;;5047095;28;20409;-77
2022/04/18 10:23:45;;;;;;;7.40;6.35;;;22.00;47.20;;;;;;5045980;28;20421;-77
2022/04/18 10:26:33;;;;;;;7.40;6.15;;;22.10;46.80;;;;;;5045889;28;20543;-76
2022/04/18 10:29:23;;;;;;;6.60;5.80;;;22.30;46.30;;;;;;5047648;28;20521;-76
2022/04/18 10:31:52;;;;;;;6.95;6.03;;;22.50;47.30;;;;;;5050581;28;20435;-75
2022/04/18 10:34:26;;;;;;;5.93;5.30;;;22.60;45.80;;;;;;5062344;28;20415;-76
2022/04/18 10:36:53;;;;;;;7.20;5.60;;;22.80;44.50;;;;;;5070538;28;20413;-76
2022/04/18 10:39:19;;;;;;;6.47;5.70;;;22.80;44.50;;;;;;5069656;28;20743;-76
2022/04/18 10:41:47;;;;;;;6.90;5.50;;;22.90;43.60;;;;;;5068759;28;20913;-75
2022/04/18 10:44:18;;;;;;;6.23;5.10;;;22.90;42.30;;;;;;5069696;28;20403;-76
2022/04/18 10:46:55;;;;;;;6.43;5.53;;;22.70;42.10;;;;;;5070378;28;21218;-75
2022/04/18 10:49:23;;;;;;;6.20;5.35;;;22.60;43.30;;;;;;5069007;28;20431;-75
2022/04/18 10:51:52;;;;;;;7.15;5.75;;;22.60;43.50;;;;;;5069869;28;20910;-75
2022/04/18 10:54:28;;;;;;;6.30;5.00;;;22.50;42.50;;;;;;5070463;28;20417;-75
2022/04/18 10:56:57;;;;;;;6.25;4.82;;;22.70;39.90;;;;;;5070264;28;20809;-77
2022/04/18 10:59:27;;;;;;;6.30;4.82;;;22.70;41.20;;;;;;5068843;28;20469;-77
2022/04/18 11:01:55;;;;;;;6.32;5.35;;;22.90;41.50;;;;;;5068826;28;20404;-75
2022/04/18 11:04:39;;;;;;;7.18;5.28;;;23.20;41.00;;;;;;5068505;28;20412;-75
2022/04/18 11:07:07;;;;;;;8.57;5.75;;;23.30;40.60;;;;;;5068927;28;20508;-75
2022/04/18 11:09:44;;;;;;;6.53;5.68;;;23.40;41.30;;;;;;5045380;28;20437;-75
2022/04/18 11:12:17;;;;;;;6.22;5.28;;;23.50;41.80;;;;;;5031647;28;20421;-75
2022/04/18 11:14:52;;;;;;;6.63;4.73;;;23.40;39.30;;;;;;5050169;28;20448;-75
2022/04/18 11:17:28;;;;;;;5.13;4.20;;;23.50;40.40;;;;;;5064714;28;20503;-75
2022/04/18 11:19:53;;;;;;;6.15;4.20;;;23.40;37.90;;;;;;5053303;28;20429;-75
2022/04/18 11:22:23;;;;;;;5.80;4.33;;;23.50;39.50;;;;;;5049196;28;20436;-75
2022/04/18 11:24:49;;;;;;;5.80;3.72;;;23.60;38.80;;;;;;5057948;28;20511;-75
2022/04/18 11:27:23;;;;;;;6.43;4.23;;;23.70;39.90;;;;;;5063801;28;20549;-75
2022/04/18 11:30:00;;;;;;;6.70;5.05;;;23.90;37.60;;;;;;5055568;28;20555;-75
2022/04/18 11:32:37;;;;;;;7.82;6.43;;;24.10;39.80;;;;;;5059958;28;20431;-75
2022/04/18 11:35:05;;;;;;;8.70;6.80;;;24.40;40.40;;;;;;5069932;28;20982;-75
2022/04/18 11:37:43;;;;;;;6.47;5.35;;;24.50;40.80;;;;;;5064412;28;20488;-77
2022/04/18 11:40:18;;;;;;;5.00;3.83;;;24.70;38.90;;;;;;5067578;28;20407;-77
2022/04/18 11:42:45;;;;;;;5.10;4.45;;;24.90;37.10;;;;;;5062813;28;20912;-77
2022/04/18 11:45:23;;;;;;;8.18;6.55;;;24.90;37.30;;;;;;5058340;28;20916;-76
2022/04/18 11:47:49;;;;;;;8.50;7.55;;;24.90;38.60;;;;;;5064586;28;20431;-76
2022/04/18 11:50:21;;;;;;;8.57;7.28;;;24.70;39.50;;;;;;5067379;28;20424;-77
2022/04/18 11:52:48;;;;;;;9.02;7.28;;;24.70;40.40;;;;;;5049722;28;20462;-77
2022/04/18 11:55:18;;;;;;;8.82;7.57;;;24.70;39.50;;;;;;5066966;28;20928;-76
2022/04/18 11:57:46;;;;;;;9.02;7.55;;;24.70;41.10;;;;;;5049943;28;20431;-76
2022/04/18 12:00:14;;;;;;;8.00;7.00;;;24.90;40.70;;;;;;5068767;28;20408;-76
2022/04/18 12:08:13;;;;;;;6.90;6.07;;;24.70;40.30;;;;;;5063655;28;20467;-77
2022/04/18 12:10:42;;;;;;;4.87;4.23;;;24.70;39.20;;;;;;5060000;28;20485;-78
2022/04/18 12:13:11;;;;;;;7.45;6.68;;;24.70;36.60;;;;;;5064210;28;20418;-77
2022/04/18 12:15:38;;;;;;;9.27;7.97;;;24.90;38.80;;;;;;5064835;28;20491;-77
2022/04/18 12:18:13;;;;;;;8.88;7.15;;;25.00;39.00;;;;;;5058481;28;20433;-77
2022/04/18 12:20:41;;;;;;;8.23;7.13;;;25.10;40.20;;;;;;5044263;28;20525;-77
2022/04/18 12:23:09;;;;;;;9.13;7.90;;;25.10;39.70;;;;;;5060694;28;20404;-77
2022/04/18 12:25:35;;;;;;;8.27;7.40;;;25.10;39.30;;;;;;5064320;28;20936;-76
2022/04/18 12:28:05;;;;;;;8.55;6.97;;;25.10;38.70;;;;;;5056591;28;20404;-76
2022/04/18 12:30:31;;;;;;;8.02;6.28;;;25.10;40.00;;;;;;5060927;28;20489;-76
2022/04/18 12:33:16;;;;;;;5.90;5.20;;;25.30;39.20;;;;;;5063233;28;20404;-76
2022/04/18 12:35:45;;;;;;;7.30;6.60;;;25.50;36.90;;;;;;5060087;28;20919;-76
2022/04/18 12:38:12;;;;;;;8.80;7.00;;;25.60;37.40;;;;;;5059752;28;20409;-76
2022/04/18 12:40:40;;;;;;;8.35;7.22;;;25.70;37.60;;;;;;5051128;28;20997;-76
2022/04/18 12:43:10;;;;;;;8.20;7.40;;;25.70;39.10;;;;;;5061383;28;20419;-75
2022/04/18 12:45:52;;;;;;;9.68;7.90;;;25.70;38.20;;;;;;5058174;28;20429;-76
2022/04/18 12:48:24;;;;;;;9.27;7.38;;;25.60;37.40;;;;;;5047323;28;20397;-76
2022/04/18 12:50:51;;;;;;;8.87;7.63;;;25.60;37.30;;;;;;5059309;28;20427;-76
2022/04/18 12:53:17;;;;;;;8.75;7.60;;;25.60;37.70;;;;;;5067177;28;20464;-76
2022/04/18 12:55:43;;;;;;;8.02;6.93;;;25.60;38.20;;;;;;5066271;28;20814;-75
2022/04/18 12:58:16;;;;;;;8.13;7.22;;;25.70;39.60;;;;;;5067166;28;20431;-75
2022/04/18 13:00:46;;;;;;;7.95;6.90;;;25.90;38.70;;;;;;5065988;28;20792;-76
2022/04/18 13:03:13;;;;;;;8.73;7.82;;;26.00;38.30;;;;;;5066543;28;20412;-75
2022/04/18 13:05:43;;;;;;;9.27;7.68;;;25.90;36.70;;;;;;5065752;28;20521;-75
2022/04/18 13:08:09;;;;;;;8.70;7.70;;;25.90;37.80;;;;;;5066955;28;20416;-76